Terminal Aerodrome Forecast
Issued by NWS

Home | Current Version | Previous Version | Text Only | Print | Product List | Glossary On
Versions: 1 2 3 4 5 6 7 8 9 10 11 12 13 14 15
412
FTUS41 KBTV 201136
TAFMPV
TAF
KMPV 201136Z 2012/2112 VRB03KT 1/4SM FG VV002
      TEMPO 2012/2014 3SM BR SCT002
     FM201400 01005KT P6SM SCT045
     FM201900 02009KT P6SM SCT050
     FM210400 36006KT 2SM BR FEW100
     FM210600 VRB03KT 1/2SM FG VV001=

USA.gov is the U.S. government's official web portal to all federal, state and local government web resources and services.